sensor_id;sensor_type;location;lat;lon;timestamp;pressure;altitude;pressure_sealevel;temperature;humidity
76434;BME280;65265;53.200;6.080;2023-06-24T00:00:52;102465.78;;;16.45;94.01
76434;BME280;65265;53.200;6.080;2023-06-24T00:05:45;102466.34;;;16.38;93.88
76434;BME280;65265;53.200;6.080;2023-06-24T00:10:39;102460.88;;;16.32;94.35
76434;BME280;65265;53.200;6.080;2023-06-24T00:15:31;102458.94;;;16.27;94.39
76434;BME280;65265;53.200;6.080;2023-06-24T00:20:22;102465.34;;;16.16;94.18
76434;BME280;65265;53.200;6.080;2023-06-24T00:25:15;102457.41;;;15.92;93.64
76434;BME280;65265;53.200;6.080;2023-06-24T00:30:09;102467.34;;;15.83;94.84
76434;BME280;65265;53.200;6.080;2023-06-24T00:35:01;102452.13;;;15.89;94.45
76434;BME280;65265;53.200;6.080;2023-06-24T00:39:52;102454.28;;;15.99;95.00
76434;BME280;65265;53.200;6.080;2023-06-24T00:44:45;102452.78;;;16.04;95.04
76434;BME280;65265;53.200;6.080;2023-06-24T00:49:38;102452.94;;;16.07;94.67
76434;BME280;65265;53.200;6.080;2023-06-24T00:54:29;102457.28;;;16.08;94.24
76434;BME280;65265;53.200;6.080;2023-06-24T00:59:22;102461.63;;;16.09;94.69
76434;BME280;65265;53.200;6.080;2023-06-24T01:04:16;102471.03;;;16.09;94.68
76434;BME280;65265;53.200;6.080;2023-06-24T01:09:08;102457.19;;;16.07;94.53
76434;BME280;65265;53.200;6.080;2023-06-24T01:13:59;102463.91;;;16.03;94.65
76434;BME280;65265;53.200;6.080;2023-06-24T01:18:55;102451.78;;;16.01;94.18
76434;BME280;65265;53.200;6.080;2023-06-24T01:24:17;102448.06;;;15.94;94.93
76434;BME280;65265;53.200;6.080;2023-06-24T01:29:27;102438.28;;;15.87;95.02
76434;BME280;65265;53.200;6.080;2023-06-24T01:34:29;102433.84;;;15.85;95.09
76434;BME280;65265;53.200;6.080;2023-06-24T01:39:24;102418.06;;;15.77;95.35
76434;BME280;65265;53.200;6.080;2023-06-24T01:44:17;102416.22;;;15.75;95.20
76434;BME280;65265;53.200;6.080;2023-06-24T01:49:11;102422.28;;;15.75;95.10
76434;BME280;65265;53.200;6.080;2023-06-24T01:54:07;102424.72;;;15.72;95.89
76434;BME280;65265;53.200;6.080;2023-06-24T01:59:03;102418.59;;;15.70;95.43
76434;BME280;65265;53.200;6.080;2023-06-24T02:03:56;102418.38;;;15.66;95.39
76434;BME280;65265;53.200;6.080;2023-06-24T02:08:49;102417.41;;;15.62;96.28
76434;BME280;65265;53.200;6.080;2023-06-24T02:13:44;102415.47;;;15.58;95.54
76434;BME280;65265;53.200;6.080;2023-06-24T02:18:37;102417.94;;;15.55;95.75
76434;BME280;65265;53.200;6.080;2023-06-24T02:23:33;102416.97;;;15.53;95.45
76434;BME280;65265;53.200;6.080;2023-06-24T02:28:26;102406.53;;;15.50;95.07
76434;BME280;65265;53.200;6.080;2023-06-24T02:33:20;102401.31;;;15.49;95.21
76434;BME280;65265;53.200;6.080;2023-06-24T02:38:11;102394.25;;;15.45;95.14
76434;BME280;65265;53.200;6.080;2023-06-24T02:43:03;102397.63;;;15.44;95.00
76434;BME280;65265;53.200;6.080;2023-06-24T02:47:55;102388.72;;;15.37;95.40
76434;BME280;65265;53.200;6.080;2023-06-24T02:52:49;102384.25;;;15.33;94.62
76434;BME280;65265;53.200;6.080;2023-06-24T02:57:41;102384.13;;;15.30;94.78
76434;BME280;65265;53.200;6.080;2023-06-24T03:02:32;102378.81;;;15.27;94.56
76434;BME280;65265;53.200;6.080;2023-06-24T03:07:24;102384.84;;;15.28;94.62
76434;BME280;65265;53.200;6.080;2023-06-24T03:12:17;102378.66;;;15.24;94.45
76434;BME280;65265;53.200;6.080;2023-06-24T03:17:09;102379.44;;;15.22;94.67
76434;BME280;65265;53.200;6.080;2023-06-24T03:22:03;102386.25;;;15.21;94.14
76434;BME280;65265;53.200;6.080;2023-06-24T03:26:55;102386.25;;;15.21;94.01
76434;BME280;65265;53.200;6.080;2023-06-24T03:31:48;102397.09;;;15.14;94.23
76434;BME280;65265;53.200;6.080;2023-06-24T03:36:40;102398.81;;;15.14;94.40
76434;BME280;65265;53.200;6.080;2023-06-24T03:41:31;102390.13;;;15.12;94.34
76434;BME280;65265;53.200;6.080;2023-06-24T03:46:23;102390.03;;;15.10;94.33
76434;BME280;65265;53.200;6.080;2023-06-24T03:51:17;102381.56;;;15.13;93.30
76434;BME280;65265;53.200;6.080;2023-06-24T03:56:08;102383.38;;;15.15;93.45
76434;BME280;65265;53.200;6.080;2023-06-24T04:01:01;102383.47;;;15.17;92.94
76434;BME280;65265;53.200;6.080;2023-06-24T04:05:54;102391.34;;;15.20;92.78
76434;BME280;65265;53.200;6.080;2023-06-24T04:10:47;102402.78;;;15.26;92.18
76434;BME280;65265;53.200;6.080;2023-06-24T04:15:38;102386.56;;;15.27;92.69
76434;BME280;65265;53.200;6.080;2023-06-24T04:20:30;102399.03;;;15.37;91.71
76434;BME280;65265;53.200;6.080;2023-06-24T04:25:21;102415.50;;;15.39;91.85
76434;BME280;65265;53.200;6.080;2023-06-24T04:30:14;102413.09;;;15.44;91.58
76434;BME280;65265;53.200;6.080;2023-06-24T04:35:06;102414.13;;;15.47;91.76
76434;BME280;65265;53.200;6.080;2023-06-24T04:39:57;102412.66;;;15.52;91.21
76434;BME280;65265;53.200;6.080;2023-06-24T04:44:49;102420.72;;;15.60;91.50
76434;BME280;65265;53.200;6.080;2023-06-24T04:49:42;102412.44;;;15.67;91.12
76434;BME280;65265;53.200;6.080;2023-06-24T04:54:34;102417.97;;;15.76;91.50
76434;BME280;65265;53.200;6.080;2023-06-24T04:59:25;102392.53;;;15.83;90.87
76434;BME280;65265;53.200;6.080;2023-06-24T05:04:16;102392.16;;;15.95;91.09
76434;BME280;65265;53.200;6.080;2023-06-24T05:09:10;102401.25;;;16.06;92.25
76434;BME280;65265;53.200;6.080;2023-06-24T05:14:03;102399.06;;;16.15;92.23
76434;BME280;65265;53.200;6.080;2023-06-24T05:18:55;102398.81;;;16.29;92.43
76434;BME280;65265;53.200;6.080;2023-06-24T05:23:46;102403.78;;;16.45;93.49
76434;BME280;65265;53.200;6.080;2023-06-24T05:28:39;102394.91;;;16.59;93.41
76434;BME280;65265;53.200;6.080;2023-06-24T05:33:30;102405.03;;;16.75;93.52
76434;BME280;65265;53.200;6.080;2023-06-24T05:38:22;102406.44;;;16.89;93.98
76434;BME280;65265;53.200;6.080;2023-06-24T05:43:13;102402.84;;;17.07;94.06
76434;BME280;65265;53.200;6.080;2023-06-24T05:48:07;102406.31;;;17.30;93.39
76434;BME280;65265;53.200;6.080;2023-06-24T05:52:58;102407.34;;;17.57;92.89
76434;BME280;65265;53.200;6.080;2023-06-24T05:57:50;102404.44;;;17.95;91.08
76434;BME280;65265;53.200;6.080;2023-06-24T06:02:41;102398.69;;;18.28;88.88
76434;BME280;65265;53.200;6.080;2023-06-24T06:07:34;102402.28;;;18.58;87.65
76434;BME280;65265;53.200;6.080;2023-06-24T06:12:28;102401.44;;;18.86;87.40
76434;BME280;65265;53.200;6.080;2023-06-24T06:17:19;102403.03;;;19.10;86.01
76434;BME280;65265;53.200;6.080;2023-06-24T06:22:11;102400.19;;;19.29;86.51
76434;BME280;65265;53.200;6.080;2023-06-24T06:27:08;102396.47;;;19.49;86.44
76434;BME280;65265;53.200;6.080;2023-06-24T06:32:00;102414.22;;;19.65;85.73
76434;BME280;65265;53.200;6.080;2023-06-24T06:36:51;102411.22;;;19.82;84.35
76434;BME280;65265;53.200;6.080;2023-06-24T06:41:43;102404.84;;;20.01;85.23
76434;BME280;65265;53.200;6.080;2023-06-24T06:46:36;102407.19;;;20.24;85.02
76434;BME280;65265;53.200;6.080;2023-06-24T06:51:27;102399.16;;;20.49;83.19
76434;BME280;65265;53.200;6.080;2023-06-24T06:56:21;102413.47;;;20.66;83.98
76434;BME280;65265;53.200;6.080;2023-06-24T07:01:14;102401.09;;;20.92;83.82
76434;BME280;65265;53.200;6.080;2023-06-24T07:06:07;102406.97;;;21.22;82.64
76434;BME280;65265;53.200;6.080;2023-06-24T07:10:58;102402.31;;;21.49;80.48
76434;BME280;65265;53.200;6.080;2023-06-24T07:15:50;102397.31;;;21.58;80.30
76434;BME280;65265;53.200;6.080;2023-06-24T07:20:41;102397.66;;;21.74;80.16
76434;BME280;65265;53.200;6.080;2023-06-24T07:25:34;102403.06;;;21.85;77.76
76434;BME280;65265;53.200;6.080;2023-06-24T07:30:25;102404.13;;;21.94;79.45
76434;BME280;65265;53.200;6.080;2023-06-24T07:35:17;102400.75;;;22.01;78.40
76434;BME280;65265;53.200;6.080;2023-06-24T07:40:09;102405.16;;;22.04;77.82
76434;BME280;65265;53.200;6.080;2023-06-24T07:45:03;102405.25;;;22.08;76.93
76434;BME280;65265;53.200;6.080;2023-06-24T07:49:54;102413.22;;;22.17;77.66
76434;BME280;65265;53.200;6.080;2023-06-24T07:54:45;102409.97;;;22.31;77.84
76434;BME280;65265;53.200;6.080;2023-06-24T07:59:37;102407.69;;;22.48;77.89
76434;BME280;65265;53.200;6.080;2023-06-24T08:04:30;102415.78;;;22.63;76.18
76434;BME280;65265;53.200;6.080;2023-06-24T08:09:21;102399.56;;;22.83;75.49
76434;BME280;65265;53.200;6.080;2023-06-24T08:14:13;102408.56;;;23.06;73.50
76434;BME280;65265;53.200;6.080;2023-06-24T08:19:04;102402.84;;;23.30;73.40
76434;BME280;65265;53.200;6.080;2023-06-24T08:23:57;102404.91;;;23.55;72.38
76434;BME280;65265;53.200;6.080;2023-06-24T08:28:48;102405.97;;;23.73;71.18
76434;BME280;65265;53.200;6.080;2023-06-24T08:33:41;102398.22;;;23.82;70.82
76434;BME280;65265;53.200;6.080;2023-06-24T08:38:33;102410.75;;;24.09;71.55
76434;BME280;65265;53.200;6.080;2023-06-24T08:43:26;102404.78;;;24.26;67.85
76434;BME280;65265;53.200;6.080;2023-06-24T08:48:19;102409.25;;;24.38;66.97
76434;BME280;65265;53.200;6.080;2023-06-24T08:53:12;102393.81;;;24.65;68.30
76434;BME280;65265;53.200;6.080;2023-06-24T08:58:05;102407.03;;;24.88;66.59
76434;BME280;65265;53.200;6.080;2023-06-24T09:02:58;102408.19;;;25.32;65.43
76434;BME280;65265;53.200;6.080;2023-06-24T09:07:49;102411.84;;;25.73;61.63
76434;BME280;65265;53.200;6.080;2023-06-24T09:12:40;102406.69;;;26.06;60.38
76434;BME280;65265;53.200;6.080;2023-06-24T09:17:32;102398.81;;;26.14;60.57
76434;BME280;65265;53.200;6.080;2023-06-24T09:22:28;102395.31;;;26.21;59.02
76434;BME280;65265;53.200;6.080;2023-06-24T09:27:21;102383.03;;;26.77;59.82
76434;BME280;65265;53.200;6.080;2023-06-24T09:32:14;102382.94;;;27.28;56.97
76434;BME280;65265;53.200;6.080;2023-06-24T09:37:05;102376.59;;;27.66;54.45
76434;BME280;65265;53.200;6.080;2023-06-24T09:41:59;102371.09;;;28.08;53.55
76434;BME280;65265;53.200;6.080;2023-06-24T09:46:51;102379.44;;;28.58;52.24
76434;BME280;65265;53.200;6.080;2023-06-24T09:51:45;102374.03;;;28.70;48.34
76434;BME280;65265;53.200;6.080;2023-06-24T09:56:40;102374.69;;;28.93;46.43
76434;BME280;65265;53.200;6.080;2023-06-24T10:01:37;102370.56;;;29.42;46.05
76434;BME280;65265;53.200;6.080;2023-06-24T10:06:29;102365.78;;;29.71;45.17
76434;BME280;65265;53.200;6.080;2023-06-24T10:11:21;102371.09;;;29.69;44.73
76434;BME280;65265;53.200;6.080;2023-06-24T10:16:12;102367.00;;;29.46;45.81
76434;BME280;65265;53.200;6.080;2023-06-24T10:21:08;102366.31;;;29.30;44.33
76434;BME280;65265;53.200;6.080;2023-06-24T10:25:59;102364.88;;;29.75;45.26
76434;BME280;65265;53.200;6.080;2023-06-24T10:30:54;102360.69;;;30.18;43.75
76434;BME280;65265;53.200;6.080;2023-06-24T10:35:46;102361.59;;;30.17;43.11
76434;BME280;65265;53.200;6.080;2023-06-24T10:40:40;102348.94;;;30.35;43.49
76434;BME280;65265;53.200;6.080;2023-06-24T10:45:35;102356.41;;;30.59;42.47
76434;BME280;65265;53.200;6.080;2023-06-24T10:50:26;102360.53;;;30.75;40.41
76434;BME280;65265;53.200;6.080;2023-06-24T10:55:18;102362.50;;;31.08;40.01
76434;BME280;65265;53.200;6.080;2023-06-24T11:00:12;102347.88;;;31.34;40.15
76434;BME280;65265;53.200;6.080;2023-06-24T11:05:05;102344.81;;;31.52;39.06
76434;BME280;65265;53.200;6.080;2023-06-24T11:10:00;102350.88;;;31.95;39.44
76434;BME280;65265;53.200;6.080;2023-06-24T11:14:55;102348.75;;;32.09;37.97
76434;BME280;65265;53.200;6.080;2023-06-24T11:19:48;102350.22;;;32.22;39.22
76434;BME280;65265;53.200;6.080;2023-06-24T11:24:40;102340.91;;;32.05;38.89
76434;BME280;65265;53.200;6.080;2023-06-24T11:29:33;102346.84;;;31.79;38.76
76434;BME280;65265;53.200;6.080;2023-06-24T11:34:24;102345.09;;;31.40;37.94
76434;BME280;65265;53.200;6.080;2023-06-24T11:39:25;102336.78;;;31.17;38.12
76434;BME280;65265;53.200;6.080;2023-06-24T11:44:18;102337.72;;;31.15;39.62
76434;BME280;65265;53.200;6.080;2023-06-24T11:49:10;102336.59;;;30.82;40.54
76434;BME280;65265;53.200;6.080;2023-06-24T11:54:03;102336.88;;;31.11;40.59
76434;BME280;65265;53.200;6.080;2023-06-24T11:58:56;102340.88;;;30.89;39.89
76434;BME280;65265;53.200;6.080;2023-06-24T12:03:48;102343.31;;;31.00;40.33
76434;BME280;65265;53.200;6.080;2023-06-24T12:08:39;102334.25;;;31.10;40.36
76434;BME280;65265;53.200;6.080;2023-06-24T12:13:31;102338.22;;;30.42;41.46
76434;BME280;65265;53.200;6.080;2023-06-24T12:18:23;102337.31;;;30.45;40.32
76434;BME280;65265;53.200;6.080;2023-06-24T12:23:15;102331.22;;;29.87;42.19
76434;BME280;65265;53.200;6.080;2023-06-24T12:28:06;102332.06;;;30.43;42.41
76434;BME280;65265;53.200;6.080;2023-06-24T12:32:58;102321.72;;;30.31;41.79
76434;BME280;65265;53.200;6.080;2023-06-24T12:37:51;102335.47;;;30.48;41.48
76434;BME280;65265;53.200;6.080;2023-06-24T12:42:42;102326.44;;;31.05;40.66
76434;BME280;65265;53.200;6.080;2023-06-24T12:47:33;102327.50;;;31.39;37.87
76434;BME280;65265;53.200;6.080;2023-06-24T12:52:25;102336.06;;;31.50;36.88
76434;BME280;65265;53.200;6.080;2023-06-24T12:57:18;102331.50;;;31.55;36.97
76434;BME280;65265;53.200;6.080;2023-06-24T13:02:09;102327.28;;;31.86;36.87
76434;BME280;65265;53.200;6.080;2023-06-24T13:07:00;102325.31;;;31.94;37.27
76434;BME280;65265;53.200;6.080;2023-06-24T13:11:53;102323.59;;;31.92;36.17
76434;BME280;65265;53.200;6.080;2023-06-24T13:16:46;102339.28;;;32.34;35.49
76434;BME280;65265;53.200;6.080;2023-06-24T13:21:37;102336.09;;;32.54;35.01
76434;BME280;65265;53.200;6.080;2023-06-24T13:26:30;102332.16;;;32.38;36.13
76434;BME280;65265;53.200;6.080;2023-06-24T13:31:22;102329.16;;;32.50;35.97
76434;BME280;65265;53.200;6.080;2023-06-24T13:36:30;102325.84;;;32.75;35.32
76434;BME280;65265;53.200;6.080;2023-06-24T13:41:22;102326.50;;;33.12;34.33
76434;BME280;65265;53.200;6.080;2023-06-24T13:46:13;102319.25;;;32.88;35.75
76434;BME280;65265;53.200;6.080;2023-06-24T13:51:05;102310.41;;;32.89;34.88
76434;BME280;65265;53.200;6.080;2023-06-24T13:55:58;102313.59;;;32.70;36.04
76434;BME280;65265;53.200;6.080;2023-06-24T14:00:49;102307.31;;;32.74;36.48
76434;BME280;65265;53.200;6.080;2023-06-24T14:05:41;102312.97;;;31.93;37.80
76434;BME280;65265;53.200;6.080;2023-06-24T14:10:32;102311.34;;;31.88;39.02
76434;BME280;65265;53.200;6.080;2023-06-24T14:15:25;102305.25;;;31.46;38.73
76434;BME280;65265;53.200;6.080;2023-06-24T14:20:16;102301.25;;;30.88;39.45
76434;BME280;65265;53.200;6.080;2023-06-24T14:25:08;102301.88;;;30.99;38.71
76434;BME280;65265;53.200;6.080;2023-06-24T14:30:00;102293.72;;;30.68;41.04
76434;BME280;65265;53.200;6.080;2023-06-24T14:34:52;102298.31;;;31.01;41.69
76434;BME280;65265;53.200;6.080;2023-06-24T14:39:44;102296.31;;;31.12;39.75
76434;BME280;65265;53.200;6.080;2023-06-24T14:44:35;102292.09;;;31.04;39.40
76434;BME280;65265;53.200;6.080;2023-06-24T14:49:27;102292.47;;;31.28;40.14
76434;BME280;65265;53.200;6.080;2023-06-24T14:54:19;102291.44;;;31.73;40.61
76434;BME280;65265;53.200;6.080;2023-06-24T14:59:11;102286.84;;;31.80;36.98
76434;BME280;65265;53.200;6.080;2023-06-24T15:04:03;102288.38;;;31.12;39.91
76434;BME280;65265;53.200;6.080;2023-06-24T15:08:54;102293.31;;;31.68;39.27
76434;BME280;65265;53.200;6.080;2023-06-24T15:13:47;102285.97;;;31.79;36.74
76434;BME280;65265;53.200;6.080;2023-06-24T15:18:44;102300.88;;;32.18;38.52
76434;BME280;65265;53.200;6.080;2023-06-24T15:23:36;102287.09;;;32.04;36.80
76434;BME280;65265;53.200;6.080;2023-06-24T15:28:27;102284.81;;;32.24;39.57
76434;BME280;65265;53.200;6.080;2023-06-24T15:33:21;102283.19;;;32.52;39.89
76434;BME280;65265;53.200;6.080;2023-06-24T15:38:12;102289.31;;;31.87;39.60
76434;BME280;65265;53.200;6.080;2023-06-24T15:43:04;102290.59;;;32.06;39.81
76434;BME280;65265;53.200;6.080;2023-06-24T15:47:55;102292.09;;;32.16;40.18
76434;BME280;65265;53.200;6.080;2023-06-24T15:52:48;102288.47;;;32.20;40.90
76434;BME280;65265;53.200;6.080;2023-06-24T15:57:39;102277.22;;;32.44;41.38
76434;BME280;65265;53.200;6.080;2023-06-24T16:02:31;102282.75;;;32.66;39.90
76434;BME280;65265;53.200;6.080;2023-06-24T16:07:22;102284.50;;;32.36;38.29
76434;BME280;65265;53.200;6.080;2023-06-24T16:12:15;102276.22;;;32.16;39.52
76434;BME280;65265;53.200;6.080;2023-06-24T16:17:07;102281.06;;;31.99;39.42
76434;BME280;65265;53.200;6.080;2023-06-24T16:21:58;102269.28;;;31.77;40.31
76434;BME280;65265;53.200;6.080;2023-06-24T16:26:49;102272.41;;;31.56;40.68
76434;BME280;65265;53.200;6.080;2023-06-24T16:31:42;102276.28;;;31.42;41.74
76434;BME280;65265;53.200;6.080;2023-06-24T16:36:34;102272.09;;;31.32;42.40
76434;BME280;65265;53.200;6.080;2023-06-24T16:41:25;102272.09;;;31.32;41.18
76434;BME280;65265;53.200;6.080;2023-06-24T16:46:16;102262.03;;;31.08;41.45
76434;BME280;65265;53.200;6.080;2023-06-24T16:51:09;102270.59;;;30.79;41.71
76434;BME280;65265;53.200;6.080;2023-06-24T16:56:01;102261.44;;;30.53;42.51
76434;BME280;65265;53.200;6.080;2023-06-24T17:00:52;102250.13;;;30.46;43.25
76434;BME280;65265;53.200;6.080;2023-06-24T17:05:44;102250.53;;;30.25;43.40
76434;BME280;65265;53.200;6.080;2023-06-24T17:10:36;102249.03;;;30.13;43.07
76434;BME280;65265;53.200;6.080;2023-06-24T17:15:28;102247.34;;;30.09;42.46
76434;BME280;65265;53.200;6.080;2023-06-24T17:20:19;102248.75;;;29.76;44.18
76434;BME280;65265;53.200;6.080;2023-06-24T17:25:11;102254.91;;;29.78;44.16
76434;BME280;65265;53.200;6.080;2023-06-24T17:30:05;102244.63;;;29.62;43.78
76434;BME280;65265;53.200;6.080;2023-06-24T17:34:57;102246.50;;;29.54;44.72
76434;BME280;65265;53.200;6.080;2023-06-24T17:39:48;102246.72;;;29.39;45.31
76434;BME280;65265;53.200;6.080;2023-06-24T17:44:39;102251.19;;;29.32;44.69
76434;BME280;65265;53.200;6.080;2023-06-24T17:49:32;102257.75;;;29.06;45.18
76434;BME280;65265;53.200;6.080;2023-06-24T17:54:24;102259.06;;;28.69;46.22
76434;BME280;65265;53.200;6.080;2023-06-24T17:59:15;102242.34;;;28.70;46.31
76434;BME280;65265;53.200;6.080;2023-06-24T18:04:06;102249.50;;;28.59;46.39
76434;BME280;65265;53.200;6.080;2023-06-24T18:08:59;102248.81;;;28.43;46.16
76434;BME280;65265;53.200;6.080;2023-06-24T18:13:51;102248.28;;;28.10;48.28
76434;BME280;65265;53.200;6.080;2023-06-24T18:18:43;102248.47;;;27.89;47.63
76434;BME280;65265;53.200;6.080;2023-06-24T18:23:34;102245.03;;;27.81;48.63
76434;BME280;65265;53.200;6.080;2023-06-24T18:28:27;102235.56;;;27.56;50.08
76434;BME280;65265;53.200;6.080;2023-06-24T18:33:18;102243.53;;;27.47;49.66
76434;BME280;65265;53.200;6.080;2023-06-24T18:38:10;102242.00;;;27.04;51.19
76434;BME280;65265;53.200;6.080;2023-06-24T18:43:01;102242.25;;;26.41;54.93
76434;BME280;65265;53.200;6.080;2023-06-24T18:47:56;102244.09;;;26.00;55.80
76434;BME280;65265;53.200;6.080;2023-06-24T18:52:47;102243.19;;;25.59;56.66
76434;BME280;65265;53.200;6.080;2023-06-24T18:57:39;102231.75;;;25.18;58.59
76434;BME280;65265;53.200;6.080;2023-06-24T19:02:30;102234.28;;;24.90;58.94
76434;BME280;65265;53.200;6.080;2023-06-24T19:07:24;102234.19;;;24.71;59.84
76434;BME280;65265;53.200;6.080;2023-06-24T19:12:15;102235.88;;;24.54;60.39
76434;BME280;65265;53.200;6.080;2023-06-24T19:17:07;102237.47;;;24.32;61.39
76434;BME280;65265;53.200;6.080;2023-06-24T19:21:58;102233.84;;;24.11;61.70
76434;BME280;65265;53.200;6.080;2023-06-24T19:26:54;102236.41;;;24.05;62.06
76434;BME280;65265;53.200;6.080;2023-06-24T19:31:46;102227.44;;;23.73;62.47
76434;BME280;65265;53.200;6.080;2023-06-24T19:36:37;102236.00;;;23.60;62.48
76434;BME280;65265;53.200;6.080;2023-06-24T19:41:29;102235.03;;;23.46;63.62
76434;BME280;65265;53.200;6.080;2023-06-24T19:46:22;102230.56;;;23.33;64.22
76434;BME280;65265;53.200;6.080;2023-06-24T19:51:13;102237.38;;;23.19;65.10
76434;BME280;65265;53.200;6.080;2023-06-24T19:56:04;102246.72;;;23.00;66.82
76434;BME280;65265;53.200;6.080;2023-06-24T20:00:56;102236.84;;;22.77;67.69
76434;BME280;65265;53.200;6.080;2023-06-24T20:05:49;102241.66;;;22.47;68.89
76434;BME280;65265;53.200;6.080;2023-06-24T20:10:41;102241.44;;;22.32;69.29
76434;BME280;65265;53.200;6.080;2023-06-24T20:15:32;102248.00;;;22.08;69.64
76434;BME280;65265;53.200;6.080;2023-06-24T20:20:24;102253.72;;;21.84;72.04
76434;BME280;65265;53.200;6.080;2023-06-24T20:25:16;102257.78;;;21.70;73.19
76434;BME280;65265;53.200;6.080;2023-06-24T20:30:08;102260.03;;;21.51;74.33
76434;BME280;65265;53.200;6.080;2023-06-24T20:35:00;102242.28;;;21.29;75.54
76434;BME280;65265;53.200;6.080;2023-06-24T20:39:52;102251.69;;;21.22;75.38
76434;BME280;65265;53.200;6.080;2023-06-24T20:44:45;102248.94;;;21.15;75.97
76434;BME280;65265;53.200;6.080;2023-06-24T20:49:37;102251.41;;;21.07;75.85
76434;BME280;65265;53.200;6.080;2023-06-24T20:54:29;102251.28;;;21.01;76.38
76434;BME280;65265;53.200;6.080;2023-06-24T20:59:21;102251.97;;;20.93;76.50
76434;BME280;65265;53.200;6.080;2023-06-24T21:04:14;102246.50;;;20.81;77.63
76434;BME280;65265;53.200;6.080;2023-06-24T21:09:06;102253.16;;;20.68;79.77
76434;BME280;65265;53.200;6.080;2023-06-24T21:13:57;102252.31;;;20.69;79.96
76434;BME280;65265;53.200;6.080;2023-06-24T21:18:49;102245.47;;;20.73;78.99
76434;BME280;65265;53.200;6.080;2023-06-24T21:23:42;102242.06;;;20.77;79.13
76434;BME280;65265;53.200;6.080;2023-06-24T21:28:33;102238.59;;;20.76;80.04
76434;BME280;65265;53.200;6.080;2023-06-24T21:33:26;102236.84;;;20.75;79.99
76434;BME280;65265;53.200;6.080;2023-06-24T21:38:17;102237.63;;;20.71;81.31
76434;BME280;65265;53.200;6.080;2023-06-24T21:43:10;102231.31;;;20.60;82.06
76434;BME280;65265;53.200;6.080;2023-06-24T21:48:01;102224.34;;;20.59;82.78
76434;BME280;65265;53.200;6.080;2023-06-24T21:52:54;102222.56;;;20.55;82.53
76434;BME280;65265;53.200;6.080;2023-06-24T21:57:45;102220.69;;;20.50;82.60
76434;BME280;65265;53.200;6.080;2023-06-24T22:02:38;102224.94;;;20.46;83.28
76434;BME280;65265;53.200;6.080;2023-06-24T22:07:29;102225.75;;;20.42;83.74
76434;BME280;65265;53.200;6.080;2023-06-24T22:12:21;102227.44;;;20.40;82.58
76434;BME280;65265;53.200;6.080;2023-06-24T22:17:12;102222.09;;;20.34;82.92
76434;BME280;65265;53.200;6.080;2023-06-24T22:22:05;102221.09;;;20.28;83.81
76434;BME280;65265;53.200;6.080;2023-06-24T22:26:57;102219.28;;;20.24;83.92
76434;BME280;65265;53.200;6.080;2023-06-24T22:31:48;102214.91;;;20.23;83.88
76434;BME280;65265;53.200;6.080;2023-06-24T22:36:40;102218.91;;;20.09;85.10
76434;BME280;65265;53.200;6.080;2023-06-24T22:41:33;102213.44;;;19.98;85.76
76434;BME280;65265;53.200;6.080;2023-06-24T22:46:24;102210.63;;;19.89;86.36
76434;BME280;65265;53.200;6.080;2023-06-24T22:51:16;102212.13;;;19.80;86.20
76434;BME280;65265;53.200;6.080;2023-06-24T22:56:07;102205.06;;;19.74;85.61
76434;BME280;65265;53.200;6.080;2023-06-24T23:01:03;102213.53;;;19.67;86.13
76434;BME280;65265;53.200;6.080;2023-06-24T23:05:55;102202.94;;;19.58;86.18
76434;BME280;65265;53.200;6.080;2023-06-24T23:10:47;102209.56;;;19.46;86.63
76434;BME280;65265;53.200;6.080;2023-06-24T23:15:38;102198.81;;;19.33;88.11
76434;BME280;65265;53.200;6.080;2023-06-24T23:20:32;102191.69;;;19.26;87.64
76434;BME280;65265;53.200;6.080;2023-06-24T23:25:24;102197.59;;;19.19;87.97
76434;BME280;65265;53.200;6.080;2023-06-24T23:30:20;102191.09;;;19.05;89.64
76434;BME280;65265;53.200;6.080;2023-06-24T23:35:13;102189.94;;;18.94;90.14
76434;BME280;65265;53.200;6.080;2023-06-24T23:40:07;102184.59;;;18.88;90.38
76434;BME280;65265;53.200;6.080;2023-06-24T23:44:59;102174.81;;;18.78;90.99
76434;BME280;65265;53.200;6.080;2023-06-24T23:49:50;102175.31;;;18.65;91.67
76434;BME280;65265;53.200;6.080;2023-06-24T23:54:42;102164.69;;;18.56;92.30
76434;BME280;65265;53.200;6.080;2023-06-24T23:59:35;102164.47;;;18.48;91.21
